Time;durP1;ratioP1;P1;durP2;ratioP2;P2;SDS_P1;SDS_P2;PMS_P1;PMS_P2;Temp;Humidity;BMP_temperature;BMP_pressure;BME280_temperature;BME280_humidity;BME280_pressure;Samples;Min_cycle;Max_cycle;Signal;HPM_P1;HPM_P2
2023/08/06 00:00:36;;;;;;;2.20;0.85;;;;;;;15.19;100.00;97174.25;18440838;32;20068;-58
2023/08/06 00:10:41;;;;;;;3.33;0.80;;;;;;;15.28;100.00;97152.50;18439391;32;20065;-58
2023/08/06 00:20:44;;;;;;;2.67;1.02;;;;;;;15.54;100.00;97149.87;18425539;32;20092;-57
2023/08/06 00:30:56;;;;;;;1.42;0.77;;;;;;;15.68;100.00;97136.16;18439044;32;20080;-57
2023/08/06 00:40:59;;;;;;;2.55;0.70;;;;;;;15.73;100.00;97148.81;18438391;32;20088;-58
2023/08/06 00:51:02;;;;;;;0.88;0.70;;;;;;;15.77;100.00;97122.53;18423905;32;20072;-58
2023/08/06 01:01:05;;;;;;;1.40;0.70;;;;;;;15.81;100.00;97123.53;18437325;32;20377;-57
2023/08/06 01:11:20;;;;;;;1.40;0.68;;;;;;;15.80;100.00;97115.66;18422561;32;20076;-58
2023/08/06 01:21:23;;;;;;;1.42;0.62;;;;;;;15.69;100.00;97110.50;18435962;32;20109;-58
2023/08/06 01:31:36;;;;;;;1.87;0.50;;;;;;;15.54;100.00;97102.75;18428740;32;20057;-57
2023/08/06 01:41:39;;;;;;;1.25;0.50;;;;;;;15.40;100.00;97113.75;18434775;32;20056;-57
2023/08/06 01:51:42;;;;;;;1.60;0.70;;;;;;;15.29;100.00;97102.34;18433682;32;20101;-58
2023/08/06 02:01:45;;;;;;;2.75;0.82;;;;;;;15.18;100.00;97117.38;18433401;32;20057;-58
2023/08/06 02:11:48;;;;;;;2.20;0.80;;;;;;;15.12;100.00;97105.03;18432998;32;20117;-57
2023/08/06 02:21:51;;;;;;;2.40;0.50;;;;;;;15.19;100.00;97114.31;18433002;32;20057;-58
2023/08/06 02:31:55;;;;;;;2.58;0.98;;;;;;;15.32;100.00;97112.63;18417654;32;20094;-57
2023/08/06 02:41:58;;;;;;;2.10;0.70;;;;;;;15.41;100.00;97104.47;18431518;32;20483;-58
2023/08/06 02:52:01;;;;;;;3.53;1.10;;;;;;;15.34;100.00;97113.09;18404216;32;20410;-57
2023/08/06 03:02:04;;;;;;;3.60;0.80;;;;;;;15.42;100.00;97149.69;18417002;32;20391;-57
2023/08/06 03:12:08;;;;;;;3.13;0.63;;;;;;;15.16;100.00;97183.03;18417000;32;20061;-58
2023/08/06 03:22:10;;;;;;;2.45;0.50;;;;;;;14.46;100.00;97176.25;18423596;32;20108;-58
2023/08/06 03:32:13;;;;;;;4.75;0.68;;;;;;;13.77;100.00;97179.94;18415943;32;20453;-58
2023/08/06 03:42:15;;;;;;;2.45;0.50;;;;;;;13.50;100.00;97193.22;18433677;32;20432;-58
2023/08/06 03:52:18;;;;;;;3.78;0.40;;;;;;;13.46;100.00;97224.00;18441683;32;20388;-58
2023/08/06 04:02:21;;;;;;;1.75;0.62;;;;;;;13.46;100.00;97222.06;18440672;32;20057;-58
2023/08/06 04:12:24;;;;;;;4.90;0.70;;;;;;;13.38;100.00;97217.34;18440362;32;20062;-60
2023/08/06 04:22:27;;;;;;;2.70;0.50;;;;;;;13.33;100.00;97220.09;18439608;32;20125;-61
2023/08/06 04:32:30;;;;;;;2.70;0.62;;;;;;;13.38;100.00;97247.22;18439057;32;20412;-60
2023/08/06 04:42:33;;;;;;;2.60;0.50;;;;;;;13.29;100.00;97252.50;18438236;32;20061;-61
2023/08/06 04:52:37;;;;;;;3.20;0.55;;;;;;;13.31;100.00;97233.19;18422214;32;20045;-60
2023/08/06 05:02:40;;;;;;;3.45;0.70;;;;;;;13.25;100.00;97231.66;18437293;32;20437;-61
2023/08/06 05:12:43;;;;;;;2.33;0.70;;;;;;;13.18;100.00;97240.19;18422676;32;20079;-58
2023/08/06 05:22:46;;;;;;;4.30;0.47;;;;;;;13.26;100.00;97238.69;18422033;32;20065;-58
2023/08/06 05:32:48;;;;;;;0.93;0.35;;;;;;;13.37;100.00;97245.59;18421640;32;20108;-57
2023/08/06 05:42:54;;;;;;;2.00;0.70;;;;;;;13.40;100.00;97242.28;18434687;32;20049;-58
2023/08/06 05:52:57;;;;;;;2.60;0.62;;;;;;;13.53;100.00;97263.22;18368741;32;20354;-58
2023/08/06 06:03:03;;;;;;;1.87;0.60;;;;;;;13.58;100.00;97264.22;18367651;32;20066;-58
2023/08/06 06:13:06;;;;;;;2.95;0.70;;;;;;;13.64;100.00;97273.91;18369024;32;20061;-58
2023/08/06 06:23:11;;;;;;;5.45;0.30;;;;;;;13.81;100.00;97295.84;18368725;32;20446;-58
2023/08/06 06:33:14;;;;;;;1.48;0.32;;;;;;;13.88;100.00;97309.87;18366721;32;20088;-58
2023/08/06 06:43:16;;;;;;;2.05;0.22;;;;;;;13.94;100.00;97298.91;18367641;32;20070;-58
2023/08/06 06:53:20;;;;;;;0.10;0.05;;;;;;;13.97;100.00;97311.91;18422132;32;20082;-58
2023/08/06 07:03:23;;;;;;;0.10;0.00;;;;;;;13.83;100.00;97307.25;18416788;32;20095;-58
2023/08/06 07:13:26;;;;;;;0.32;0.00;;;;;;;13.69;100.00;97317.28;18430696;32;20065;-60
2023/08/06 07:23:29;;;;;;;0.57;0.03;;;;;;;13.61;100.00;97312.53;18442717;32;20428;-60
2023/08/06 07:33:33;;;;;;;0.30;0.05;;;;;;;13.61;100.00;97340.50;18442631;32;20448;-61
2023/08/06 07:43:36;;;;;;;0.10;0.00;;;;;;;13.71;100.00;97344.97;18427851;32;20065;-60
2023/08/06 07:53:41;;;;;;;1.45;0.10;;;;;;;13.93;100.00;97371.47;18434518;32;20465;-61
2023/08/06 08:03:45;;;;;;;0.80;0.22;;;;;;;14.37;100.00;97375.53;18440917;32;20339;-61
2023/08/06 08:13:48;;;;;;;1.87;0.20;;;;;;;14.72;100.00;97389.56;18426011;32;20071;-61
2023/08/06 08:23:52;;;;;;;0.30;0.10;;;;;;;14.71;100.00;97400.78;18426049;32;20113;-61
2023/08/06 08:33:55;;;;;;;0.40;0.20;;;;;;;15.07;100.00;97397.28;18424612;32;20353;-61
2023/08/06 08:44:11;;;;;;;2.28;0.37;;;;;;;15.89;100.00;97397.31;18424565;32;20422;-58
2023/08/06 08:54:17;;;;;;;0.35;0.05;;;;;;;16.13;100.00;97416.06;18437706;32;20053;-60
2023/08/06 09:04:21;;;;;;;0.10;0.00;;;;;;;15.68;100.00;97435.94;18437636;32;20065;-58
2023/08/06 09:14:24;;;;;;;0.50;0.10;;;;;;;15.46;100.00;97439.47;18422976;32;20068;-58
2023/08/06 09:24:27;;;;;;;0.00;0.00;;;;;;;15.70;100.00;97454.72;18435997;32;20058;-58
2023/08/06 09:34:31;;;;;;;5.00;0.20;;;;;;;16.23;100.00;97451.25;18435230;32;20050;-58
2023/08/06 09:44:35;;;;;;;1.80;0.10;;;;;;;16.10;100.00;97463.03;18427727;32;20080;-58
2023/08/06 09:54:38;;;;;;;;;;;;;;;15.79;100.00;97461.03;18434123;32;20049;-58
2023/08/06 10:04:45;;;;;;;0.40;0.10;;;;;;;15.82;100.00;97482.25;18419478;32;19953;-59
2023/08/06 10:15:01;;;;;;;0.20;0.10;;;;;;;15.90;100.00;97497.88;18432718;32;20471;-58
2023/08/06 10:25:05;;;;;;;0.40;0.17;;;;;;;15.97;100.00;97508.34;18418652;32;20061;-58
2023/08/06 10:35:31;;;;;;;0.40;0.10;;;;;;;15.64;100.00;97494.13;18431581;32;20058;-58
2023/08/06 10:45:36;;;;;;;1.10;0.30;;;;;;;15.81;100.00;97505.16;18428124;32;20477;-58
2023/08/06 10:55:39;;;;;;;0.37;0.20;;;;;;;15.99;100.00;97522.50;18430740;32;20108;-58
2023/08/06 11:05:49;;;;;;;0.40;0.30;;;;;;;16.15;100.00;97531.09;18416550;32;20096;-58
2023/08/06 11:15:53;;;;;;;0.70;0.20;;;;;;;16.55;100.00;97552.22;18430808;32;20076;-58
2023/08/06 11:25:57;;;;;;;0.28;0.25;;;;;;;16.59;100.00;97550.50;18430240;32;20049;-58
2023/08/06 11:36:01;;;;;;;0.60;0.30;;;;;;;16.89;100.00;97562.56;18429741;32;20110;-59
2023/08/06 11:46:04;;;;;;;1.27;0.60;;;;;;;17.45;100.00;97573.06;18429185;32;20113;-59
2023/08/06 11:56:07;;;;;;;0.82;0.47;;;;;;;17.91;100.00;97582.69;18429379;32;20075;-59
2023/08/06 12:06:10;;;;;;;1.50;0.33;;;;;;;18.30;100.00;97582.84;18434955;32;20099;-58
2023/08/06 12:16:14;;;;;;;0.50;0.30;;;;;;;17.55;100.00;97608.28;18440308;32;20053;-59
2023/08/06 12:26:17;;;;;;;2.33;0.50;;;;;;;16.45;100.00;97593.44;18419268;32;20062;-59
2023/08/06 12:36:20;;;;;;;1.12;0.55;;;;;;;15.95;100.00;97594.31;18439230;32;20100;-59
2023/08/06 12:46:23;;;;;;;0.77;0.47;;;;;;;16.22;100.00;97599.66;18438049;32;20339;-59
2023/08/06 12:56:26;;;;;;;2.75;0.82;;;;;;;17.24;100.00;97613.84;18437870;32;20412;-59
2023/08/06 13:06:30;;;;;;;1.03;0.63;;;;;;;18.31;100.00;97594.59;18437108;32;20154;-59
2023/08/06 13:16:38;;;;;;;7.20;0.90;;;;;;;17.84;100.00;97628.00;18436251;32;20049;-59
2023/08/06 13:26:45;;;;;;;0.90;0.50;;;;;;;17.76;100.00;97630.41;18436043;32;20438;-58
2023/08/06 13:36:48;;;;;;;1.33;0.60;;;;;;;19.01;100.00;97624.63;18435235;32;20096;-58
2023/08/06 13:46:51;;;;;;;0.60;0.50;;;;;;;20.14;100.00;97629.59;18420183;32;20053;-59
2023/08/06 13:56:55;;;;;;;1.70;0.43;;;;;;;20.73;100.00;97647.06;18434115;32;20121;-58
2023/08/06 14:06:59;;;;;;;1.10;0.60;;;;;;;21.46;100.00;97656.66;18433406;32;20069;-59
2023/08/06 14:17:02;;;;;;;1.40;0.30;;;;;;;20.47;98.23;97671.97;18426234;32;20076;-58
2023/08/06 14:27:10;;;;;;;0.80;0.60;;;;;;;19.72;100.00;97686.28;18418732;32;20084;-59
2023/08/06 14:37:13;;;;;;;1.17;0.80;;;;;;;19.85;100.00;97690.00;18417994;32;20429;-58
2023/08/06 14:47:16;;;;;;;;;;;;;;;20.67;100.00;97695.09;18431748;32;20061;-58
2023/08/06 14:57:19;;;;;;;1.17;0.47;;;;;;;19.84;100.00;97708.38;18417714;32;20305;-58
2023/08/06 15:07:22;;;;;;;1.93;0.80;;;;;;;19.11;100.00;97720.22;18430920;32;20096;-58
2023/08/06 15:17:26;;;;;;;1.27;0.65;;;;;;;18.98;100.00;97716.53;18430481;32;20050;-58
2023/08/06 15:27:30;;;;;;;1.35;0.77;;;;;;;18.93;100.00;97720.22;18415883;32;20105;-58
2023/08/06 15:37:33;;;;;;;0.73;0.60;;;;;;;18.62;100.00;97726.66;18432967;32;20422;-58
2023/08/06 15:47:40;;;;;;;0.90;0.60;;;;;;;18.37;100.00;97738.37;18442030;32;20084;-58
2023/08/06 15:57:43;;;;;;;1.12;0.73;;;;;;;18.12;100.00;97751.69;18428304;32;20080;-58
2023/08/06 16:07:50;;;;;;;1.67;0.70;;;;;;;17.95;100.00;97750.50;18440791;32;20080;-58
2023/08/06 16:17:53;;;;;;;1.45;0.68;;;;;;;17.82;100.00;97759.59;18440629;32;20372;-58
2023/08/06 16:27:56;;;;;;;1.30;0.70;;;;;;;17.66;100.00;97763.88;18425474;32;20095;-58
2023/08/06 16:37:59;;;;;;;1.90;0.90;;;;;;;17.67;100.00;97768.22;18438987;32;20083;-58
2023/08/06 16:48:03;;;;;;;1.93;0.73;;;;;;;18.01;100.00;97788.69;18437304;32;20076;-58
2023/08/06 16:58:06;;;;;;;1.03;0.47;;;;;;;17.38;100.00;97797.63;18437668;32;20049;-58
2023/08/06 17:08:09;;;;;;;2.83;1.10;;;;;;;16.83;100.00;97815.03;18417383;32;20074;-58
2023/08/06 17:18:15;;;;;;;1.90;0.80;;;;;;;16.75;100.00;97810.28;18436536;32;20074;-58
2023/08/06 17:28:20;;;;;;;1.62;0.65;;;;;;;16.40;100.00;97804.47;18436006;32;20395;-58
2023/08/06 17:38:23;;;;;;;2.03;0.70;;;;;;;16.33;100.00;97817.72;18421249;32;20058;-58
2023/08/06 17:48:26;;;;;;;3.00;0.80;;;;;;;16.32;100.00;97810.66;18420678;32;20092;-58
2023/08/06 17:58:29;;;;;;;1.30;0.67;;;;;;;16.34;100.00;97805.72;18401294;32;20072;-58
2023/08/06 18:08:33;;;;;;;1.52;0.90;;;;;;;16.18;100.00;97814.19;18433886;32;20601;-58
2023/08/06 18:18:36;;;;;;;2.65;1.67;;;;;;;15.78;100.00;97832.12;18433046;32;20084;-58
2023/08/06 18:28:43;;;;;;;2.03;0.95;;;;;;;15.38;100.00;97836.03;18432413;32;20343;-58
2023/08/06 18:38:50;;;;;;;1.60;1.10;;;;;;;15.07;100.00;97841.16;18432889;32;20456;-58
2023/08/06 18:48:54;;;;;;;2.85;1.48;;;;;;;14.71;100.00;97855.28;18416170;32;20433;-58
2023/08/06 18:58:57;;;;;;;2.00;1.10;;;;;;;14.41;100.00;97851.78;18418069;32;20084;-58
2023/08/06 19:09:00;;;;;;;11.33;8.43;;;;;;;14.09;100.00;97845.09;18416626;32;20068;-58
2023/08/06 19:19:04;;;;;;;6.53;3.17;;;;;;;13.84;100.00;97867.91;18442535;32;20142;-58
2023/08/06 19:29:07;;;;;;;2.00;1.10;;;;;;;13.62;100.00;97873.81;18443286;32;20480;-58
2023/08/06 19:39:12;;;;;;;3.08;1.98;;;;;;;13.43;100.00;97885.38;18442962;32;20068;-57
2023/08/06 19:49:15;;;;;;;7.05;4.03;;;;;;;13.35;100.00;97880.50;18441683;32;20045;-58
2023/08/06 19:59:22;;;;;;;5.50;3.50;;;;;;;13.35;100.00;97888.66;18441603;32;20057;-58
2023/08/06 20:09:26;;;;;;;8.00;1.98;;;;;;;13.38;100.00;97897.06;18426783;32;20065;-58
2023/08/06 20:19:29;;;;;;;2.85;1.30;;;;;;;13.41;100.00;97890.25;18440192;32;20065;-58
2023/08/06 20:29:33;;;;;;;1.37;1.03;;;;;;;13.37;100.00;97898.19;18438601;32;20073;-58
2023/08/06 20:39:38;;;;;;;6.32;1.30;;;;;;;13.25;100.00;97902.31;18433049;32;20105;-58
2023/08/06 20:49:41;;;;;;;7.65;4.90;;;;;;;13.14;100.00;97913.25;18438342;32;20072;-58
2023/08/06 20:59:44;;;;;;;5.53;2.30;;;;;;;13.02;100.00;97921.72;18423988;32;20110;-57
2023/08/06 21:09:47;;;;;;;3.35;0.95;;;;;;;12.91;100.00;97928.28;18422934;32;20080;-58
2023/08/06 21:19:50;;;;;;;2.35;0.82;;;;;;;12.80;100.00;97926.69;18436649;32;20053;-57
2023/08/06 21:29:53;;;;;;;1.90;1.15;;;;;;;12.67;100.00;97922.69;18435813;32;20103;-57
2023/08/06 21:39:59;;;;;;;2.55;1.00;;;;;;;12.53;100.00;97931.41;18435106;32;20365;-58
2023/08/06 21:50:03;;;;;;;2.08;1.00;;;;;;;12.42;100.00;97929.81;18421198;32;20105;-57
2023/08/06 22:00:08;;;;;;;4.10;1.30;;;;;;;12.35;100.00;97937.44;18420659;32;20403;-58
2023/08/06 22:10:11;;;;;;;2.35;1.33;;;;;;;12.35;100.00;97937.44;18433610;32;20112;-58
2023/08/06 22:20:15;;;;;;;1.75;0.93;;;;;;;12.33;100.00;97937.72;18432928;32;20118;-58
2023/08/06 22:30:19;;;;;;;1.90;1.00;;;;;;;12.39;100.00;97938.50;18432401;32;20073;-60
2023/08/06 22:40:22;;;;;;;3.58;0.90;;;;;;;12.41;100.00;97944.47;18432113;32;20049;-60
2023/08/06 22:50:24;;;;;;;1.60;1.05;;;;;;;12.47;100.00;97942.53;18430706;32;20069;-60
2023/08/06 23:00:28;;;;;;;1.60;1.08;;;;;;;12.52;100.00;97942.53;18431232;32;20070;-60
2023/08/06 23:10:31;;;;;;;2.73;1.00;;;;;;;12.59;100.00;97940.34;18430723;32;20066;-60
2023/08/06 23:20:35;;;;;;;2.40;1.00;;;;;;;12.63;100.00;97951.47;18423994;32;20077;-61
2023/08/06 23:30:39;;;;;;;2.87;0.98;;;;;;;12.68;100.00;97957.66;18416313;32;20117;-61
2023/08/06 23:40:41;;;;;;;4.73;0.90;;;;;;;12.72;100.00;97955.22;18430196;32;20369;-60
2023/08/06 23:50:45;;;;;;;3.47;0.88;;;;;;;12.75;100.00;97954.66;18429742;32;20069;-60
